Horse Branch, Kentucky
Current Conditions -  °F | °C
As of 5:56 AM on Monday 26 Jan 2015 (Local Time) from KOWB Reporting Station
Overcast Overcast  
Wind Chill: 21°   Ceiling: 1600
Heat Index: 30°   Visibility: 10mi
Dew Point: 25°   Wind: 10mph
Humidity: 82%   Direction: 340°NNW
Pressure: 29.97"   Gusts: NA
Location:  37.46°N, 86.68°W
Report Text: KOWB 261156Z 34009KT 10SM OVC016 M01/M04 A2997 RMK AO2 52022 60000 70027 T10111038 10011 21016 SLP153
Loading
Personal Weather Stations






























Interactive Weather Map New forecast layout! Learn more

10-Day Weather Forecast

Advertisements
Track Severe Weather on mobile